| time (UTC) | temp C | wind direction | speed KPH | gust KPH | rain 1hr cm | rain 24hr cm | rain mn cm | humidity % | barometer mb |
| 20260507114538 | 9 | 0 | 0.0 | 9.7 | 0.00 | 5.31 | 4.17 | 91 | 1007.4 |
| 20260507113037 | 9 | 0 | 0.0 | 0.0 | 0.00 | 5.31 | 4.17 | 91 | 1007.7 |
| 20260507111537 | 9 | 0 | 0.0 | 3.2 | 0.00 | 5.31 | 4.17 | 91 | 1007.4 |
| 20260507110037 | 9 | 0 | 0.0 | 1.6 | 0.00 | 5.31 | 4.17 | 91 | 1007.5 |
| 20260507104537 | 9 | 0 | 0.0 | 4.8 | 0.00 | 5.31 | 4.17 | 90 | 1007.6 |
| 20260507103040 | 9 | 0 | 0.0 | 3.2 | 0.00 | 5.31 | 4.17 | 90 | 1006.9 |
| 20260507101538 | 9 | 0 | 0.0 | 3.2 | 0.00 | 5.31 | 4.17 | 90 | 1006.9 |
| 20260507100040 | 10 | 0 | 0.0 | 1.6 | 0.00 | 5.31 | 4.17 | 90 | 1006.7 |
| 20260507094539 | 10 | 0 | 0.0 | 4.8 | 0.00 | 5.31 | 4.17 | 90 | 1006.8 |
| 20260507093037 | 10 | 0 | 0.0 | 0.0 | 0.00 | 5.31 | 4.17 | 90 | 1006.9 |
| 20260507091543 | 10 | 0 | 0.0 | 6.4 | 0.00 | 5.31 | 4.17 | 90 | 1007.1 |
| 20260507090039 | 10 | 0 | 0.0 | 1.6 | 0.00 | 5.31 | 4.17 | 90 | 1007.0 |
| 20260507084538 | 11 | 0 | 0.0 | 3.2 | 0.00 | 5.31 | 4.17 | 90 | 1007.0 |
| 20260507083040 | 11 | 0 | 0.0 | 6.4 | 0.00 | 5.31 | 4.17 | 89 | 1006.7 |
| 20260507081544 | 11 | 0 | 0.0 | 8.0 | 0.00 | 5.31 | 4.17 | 89 | 1006.5 |
| 20260507080036 | 11 | 0 | 0.0 | 8.0 | 0.00 | 5.31 | 4.17 | 88 | 1007.0 |
| 20260507074552 | 11 | 0 | 0.0 | 9.7 | 0.00 | 5.31 | 4.17 | 88 | 1006.6 |
| 20260507073042 | 11 | 0 | 0.0 | 6.4 | 0.00 | 5.31 | 4.17 | 88 | 1006.1 |
| 20260507071541 | 11 | 0 | 0.0 | 8.0 | 0.00 | 5.31 | 4.17 | 89 | 1006.1 |
| 20260507070040 | 11 | 0 | 0.0 | 8.0 | 0.00 | 5.31 | 4.17 | 90 | 1006.0 |
| 20260507064538 | 11 | 0 | 1.6 | 12.9 | 0.00 | 5.31 | 4.17 | 90 | 1006.1 |
| 20260507063037 | 12 | 346 | 0.0 | 8.0 | 0.00 | 5.31 | 4.17 | 91 | 1006.0 |
| 20260507061537 | 12 | 346 | 0.0 | 6.4 | 0.00 | 5.31 | 4.17 | 92 | 1005.9 |
| 20260507060038 | 12 | 0 | 0.0 | 8.0 | 0.00 | 5.31 | 4.17 | 92 | 1005.9 |
| 20260507054547 | 13 | 0 | 0.0 | 6.4 | 3.48 | 5.31 | 4.17 | 93 | 1006.2 |
| 20260507053049 | 13 | 0 | 3.2 | 14.5 | 4.17 | 5.31 | 4.17 | 93 | 1006.0 |
| 20260507051539 | 13 | 0 | 1.6 | 8.0 | 4.17 | 5.31 | 4.17 | 94 | 1005.9 |
| 20260507050038 | 13 | 21 | 1.6 | 14.5 | 4.17 | 5.31 | 4.17 | 94 | 1006.2 |
| 20260507044544 | 13 | 272 | 1.6 | 9.7 | 0.23 | 1.40 | 0.23 | 94 | 1006.1 |
| 20260507043045 | 14 | 0 | 1.6 | 16.1 | 0.00 | 1.17 | 0.00 | 94 | 1006.0 |
| 20260507041542 | 15 | 0 | 0.0 | 3.2 | 0.03 | 1.17 | 0.00 | 95 | 1006.0 |
| 20260507040038 | 15 | 0 | 0.0 | 6.4 | 0.15 | 1.17 | 0.00 | 95 | 1005.9 |
| 20260507034537 | 15 | 0 | 0.0 | 6.4 | 0.15 | 1.17 | 1.17 | 95 | 1005.8 |
| 20260507033039 | 15 | 0 | 0.0 | 6.4 | 0.15 | 1.17 | 1.17 | 95 | 1005.7 |
| 20260507031600 | 15 | 106 | 1.6 | 4.8 | 0.13 | 1.14 | 1.14 | 95 | 1005.4 |
| 20260507030049 | 15 | 106 | 0.0 | 11.3 | 0.00 | 1.02 | 1.02 | 95 | 1005.1 |
| 20260507024542 | 15 | 0 | 0.0 | 8.0 | 0.00 | 1.02 | 1.02 | 95 | 1005.1 |
| 20260507023037 | 15 | 0 | 0.0 | 14.5 | 0.05 | 1.02 | 1.02 | 95 | 1005.4 |
| 20260507021536 | 15 | 0 | 0.0 | 12.9 | 0.05 | 1.02 | 1.02 | 94 | 1005.3 |
| 20260507020040 | 15 | 188 | 0.0 | 4.8 | 0.08 | 1.02 | 1.02 | 94 | 1005.3 |
| 20260507014547 | 15 | 0 | 1.6 | 9.7 | 0.08 | 1.02 | 1.02 | 94 | 1005.4 |
| 20260507013037 | 15 | 0 | 0.0 | 11.3 | 0.03 | 0.97 | 0.97 | 94 | 1005.4 |
| 20260507011538 | 15 | 150 | 0.0 | 11.3 | 0.03 | 0.97 | 0.97 | 94 | 1005.6 |
| 20260507010041 | 15 | 0 | 1.6 | 16.1 | 0.00 | 0.94 | 0.94 | 93 | 1005.6 |
| 20260507004544 | 15 | 0 | 3.2 | 9.7 | 0.00 | 0.94 | 0.94 | 93 | 1005.7 |
| 20260507003048 | 15 | 0 | 0.0 | 9.7 | 0.13 | 0.94 | 0.94 | 93 | 1005.6 |
| 20260507001540 | 15 | 161 | 4.8 | 14.5 | 0.20 | 0.94 | 0.94 | 93 | 1005.4 |
| 20260507000041 | 15 | 147 | 4.8 | 11.3 | 0.20 | 0.94 | 0.94 | 93 | 1005.4 |
| 20260506234537 | 15 | 0 | 0.0 | 9.7 | 0.20 | 0.94 | 0.94 | 92 | 1005.5 |
| 20260506233042 | 16 | 187 | 0.0 | 12.9 | 0.08 | 0.81 | 0.81 | 92 | 1005.4 |
| 20260506231538 | 16 | 0 | 1.6 | 8.0 | 0.13 | 0.74 | 0.74 | 92 | 1005.4 |
| 20260506230042 | 16 | 0 | 1.6 | 11.3 | 0.13 | 0.74 | 0.74 | 92 | 1005.5 |
| 20260506224538 | 16 | 157 | 4.8 | 14.5 | 0.13 | 0.74 | 0.74 | 91 | 1005.5 |
| 20260506223037 | 16 | 178 | 3.2 | 17.7 | 0.13 | 0.74 | 0.74 | 91 | 1005.5 |
| 20260506221537 | 16 | 0 | 0.0 | 11.3 | 0.00 | 0.61 | 0.61 | 90 | 1005.8 |
| 20260506220037 | 16 | 0 | 1.6 | 16.1 | 0.00 | 0.61 | 0.61 | 90 | 1006.1 |
| 20260506214537 | 16 | 153 | 3.2 | 16.1 | 0.00 | 0.61 | 0.61 | 90 | 1006.1 |
| 20260506213038 | 16 | 0 | 0.0 | 14.5 | 0.00 | 0.61 | 0.61 | 89 | 1006.3 |
| 20260506211538 | 16 | 0 | 0.0 | 11.3 | 0.00 | 0.61 | 0.61 | 88 | 1006.4 |
| 20260506210038 | 16 | 0 | 1.6 | 14.5 | 0.03 | 0.61 | 0.61 | 87 | 1006.3 |
| 20260506204543 | 17 | 173 | 1.6 | 11.3 | 0.03 | 0.61 | 0.61 | 85 | 1006.7 |
| 20260506203037 | 17 | 0 | 0.0 | 24.1 | 0.13 | 0.61 | 0.61 | 83 | 1006.5 |
| 20260506201537 | 18 | 0 | 0.0 | 8.0 | 0.13 | 0.61 | 0.61 | 81 | 1006.5 |
| 20260506200039 | 18 | 0 | 0.0 | 8.0 | 0.43 | 0.58 | 0.58 | 79 | 1006.4 |
| 20260506194538 | 19 | 0 | 1.6 | 11.3 | 0.51 | 0.56 | 0.56 | 77 | 1006.5 |
| 20260506193037 | 20 | 0 | 0.0 | 8.0 | 0.43 | 0.48 | 0.48 | 75 | 1006.5 |
| 20260506191537 | 20 | 0 | 0.0 | 9.7 | 0.38 | 0.43 | 0.43 | 73 | 1006.4 |
| 20260506190037 | 21 | 140 | 0.0 | 12.9 | 0.10 | 0.15 | 0.15 | 69 | 1006.4 |
| 20260506184537 | 21 | 0 | 3.2 | 19.3 | 0.00 | 0.05 | 0.05 | 66 | 1006.5 |
| 20260506183039 | 22 | 123 | 3.2 | 19.3 | 0.00 | 0.05 | 0.05 | 63 | 1006.5 |
| 20260506181538 | 22 | 142 | 4.8 | 16.1 | 0.00 | 0.05 | 0.05 | 62 | 1006.6 |
| 20260506180046 | 22 | 136 | 3.2 | 14.5 | 0.00 | 0.05 | 0.05 | 62 | 1006.9 |
| 20260506174541 | 22 | 158 | 1.6 | 16.1 | 0.00 | 0.05 | 0.05 | 62 | 1006.9 |
| 20260506173039 | 23 | 198 | 3.2 | 30.6 | 0.00 | 0.05 | 0.05 | 61 | 1007.1 |
| 20260506171538 | 22 | 182 | 6.4 | 16.1 | 0.00 | 0.05 | 0.05 | 63 | 1007.2 |
| 20260506170050 | 22 | 132 | 4.8 | 17.7 | 0.00 | 0.05 | 0.05 | 63 | 1007.1 |
| 20260506164538 | 22 | 183 | 1.6 | 16.1 | 0.00 | 0.05 | 0.05 | 63 | 1007.3 |
| 20260506163056 | 22 | 155 | 6.4 | 27.4 | 0.00 | 0.05 | 0.05 | 61 | 1007.6 |
| 20260506161537 | 22 | 176 | 4.8 | 17.7 | 0.00 | 0.05 | 0.05 | 61 | 1007.8 |
| 20260506160036 | 22 | 0 | 1.6 | 20.9 | 0.00 | 0.05 | 0.05 | 62 | 1008.1 |
| 20260506154555 | 22 | 153 | 3.2 | 14.5 | 0.05 | 0.08 | 0.05 | 62 | 1008.4 |
| 20260506153049 | 22 | 143 | 4.8 | 19.3 | 0.05 | 0.08 | 0.05 | 62 | 1008.4 |
| 20260506151538 | 22 | 146 | 6.4 | 14.5 | 0.05 | 0.08 | 0.05 | 64 | 1008.6 |
| 20260506150037 | 22 | 211 | 4.8 | 12.9 | 0.05 | 0.08 | 0.05 | 66 | 1009.0 |
| 20260506144537 | 21 | 0 | 6.4 | 27.4 | 0.00 | 0.15 | 0.00 | 66 | 1008.8 |
| 20260506143046 | 21 | 163 | 6.4 | 16.1 | 0.00 | 0.15 | 0.00 | 66 | 1008.7 |
| 20260506141538 | 21 | 42 | 1.6 | 19.3 | 0.00 | 0.15 | 0.00 | 70 | 1008.6 |
| 20260506140039 | 20 | 169 | 3.2 | 11.3 | 0.00 | 0.15 | 0.00 | 73 | 1008.9 |
| 20260506134537 | 19 | 144 | 3.2 | 16.1 | 0.00 | 0.15 | 0.00 | 73 | 1009.0 |
| 20260506133039 | 19 | 173 | 3.2 | 17.7 | 0.00 | 0.15 | 0.00 | 73 | 1009.3 |
| 20260506131537 | 19 | 175 | 0.0 | 14.5 | 0.00 | 0.15 | 0.00 | 75 | 1009.3 |
| 20260506130037 | 18 | 175 | 4.8 | 16.1 | 0.00 | 0.15 | 0.00 | 75 | 1009.2 |
| 20260506124536 | 18 | 149 | 3.2 | 14.5 | 0.00 | 0.15 | 0.00 | 78 | 1009.1 |
| 20260506123038 | 18 | 0 | 3.2 | 16.1 | 0.00 | 0.15 | 0.00 | 77 | 1009.6 |
| 20260506121542 | 17 | 175 | 3.2 | 19.3 | 0.00 | 0.15 | 0.00 | 79 | 1009.3 |
| 20260506120038 | 17 | 0 | 3.2 | 12.9 | 0.00 | 0.15 | 0.00 | 79 | 1009.5 |